createdAt,value
2022-08-29T00:00:23.623Z,16.45
2022-08-29T00:01:23.613Z,16.47
2022-08-29T00:02:23.650Z,16.44
2022-08-29T00:03:23.579Z,16.34
2022-08-29T00:04:23.694Z,16.37
2022-08-29T00:05:25.122Z,16.27
2022-08-29T00:06:23.536Z,16.48
2022-08-29T00:07:23.530Z,16.30
2022-08-29T00:08:23.514Z,16.33
2022-08-29T00:09:23.498Z,16.26
2022-08-29T00:10:23.483Z,16.18
2022-08-29T00:11:23.478Z,16.37
2022-08-29T00:12:23.459Z,16.40
2022-08-29T00:13:23.450Z,16.18
2022-08-29T00:14:23.808Z,16.30
2022-08-29T00:15:23.416Z,16.16
2022-08-29T00:16:23.441Z,16.25
2022-08-29T00:17:23.396Z,16.27
2022-08-29T00:18:23.376Z,16.13
2022-08-29T00:19:23.365Z,16.26
2022-08-29T00:20:34.355Z,16.18
2022-08-29T00:21:24.357Z,16.26
2022-08-29T00:22:23.323Z,16.17
2022-08-29T00:23:23.311Z,16.26
2022-08-29T00:24:23.291Z,16.34
2022-08-29T00:25:23.286Z,16.29
2022-08-29T00:26:23.265Z,16.17
2022-08-29T00:27:23.253Z,16.16
2022-08-29T00:28:23.236Z,16.22
2022-08-29T00:29:23.230Z,16.14
2022-08-29T00:30:23.227Z,16.26
2022-08-29T00:31:23.268Z,16.17
2022-08-29T00:32:23.185Z,16.08
2022-08-29T00:33:23.175Z,16.03
2022-08-29T00:34:23.152Z,16.06
2022-08-29T00:35:23.146Z,16.11
2022-08-29T00:36:23.125Z,16.07
2022-08-29T00:37:23.118Z,16.06
2022-08-29T00:38:23.098Z,16.06
2022-08-29T00:39:23.676Z,15.92
2022-08-29T00:40:23.146Z,16.01
2022-08-29T00:41:23.067Z,15.99
2022-08-29T00:42:23.046Z,15.98
2022-08-29T00:43:23.039Z,15.99
2022-08-29T00:44:23.021Z,15.92
2022-08-29T00:45:23.103Z,15.99
2022-08-29T00:46:22.996Z,15.92
2022-08-29T00:47:22.988Z,15.92
2022-08-29T00:48:22.970Z,15.89
2022-08-29T00:49:22.959Z,16.01
2022-08-29T00:50:22.945Z,15.95
2022-08-29T00:51:22.929Z,15.86
2022-08-29T00:52:22.908Z,15.89
2022-08-29T00:53:22.900Z,15.81
2022-08-29T00:54:22.883Z,15.80
2022-08-29T00:55:22.874Z,15.86
2022-08-29T00:56:22.855Z,15.93
2022-08-29T00:57:22.844Z,15.78
2022-08-29T00:58:22.836Z,15.76
2022-08-29T00:59:22.820Z,15.77
2022-08-29T01:00:22.813Z,15.85
2022-08-29T01:01:22.904Z,15.76
2022-08-29T01:02:22.832Z,15.76
2022-08-29T01:03:22.769Z,15.84
2022-08-29T01:04:24.170Z,15.81
2022-08-29T01:05:22.742Z,15.80
2022-08-29T01:06:22.723Z,15.70
2022-08-29T01:07:22.712Z,15.74
2022-08-29T01:08:22.697Z,15.71
2022-08-29T01:09:22.680Z,15.85
2022-08-29T01:10:22.668Z,15.77
2022-08-29T01:11:22.657Z,15.70
2022-08-29T01:12:22.640Z,15.68
2022-08-29T01:13:22.635Z,15.85
2022-08-29T01:14:22.610Z,15.67
2022-08-29T01:15:22.599Z,15.71
2022-08-29T01:16:22.634Z,15.71
2022-08-29T01:17:22.576Z,15.70
2022-08-29T01:18:22.560Z,15.66
2022-08-29T01:19:22.552Z,15.68
2022-08-29T01:20:22.536Z,15.59
2022-08-29T01:21:22.521Z,15.68
2022-08-29T01:22:22.505Z,15.60
2022-08-29T01:23:22.499Z,15.74
2022-08-29T01:24:22.481Z,15.62
2022-08-29T01:25:22.467Z,15.66
2022-08-29T01:26:22.448Z,15.68
2022-08-29T01:27:22.441Z,15.64
2022-08-29T01:28:22.436Z,15.60
2022-08-29T01:29:22.412Z,15.52
2022-08-29T01:30:22.392Z,15.58
2022-08-29T01:31:37.371Z,15.58
2022-08-29T01:32:23.417Z,15.59
2022-08-29T01:33:22.358Z,15.62
2022-08-29T01:34:22.344Z,15.58
2022-08-29T01:35:22.328Z,15.66
2022-08-29T01:36:22.321Z,15.56
2022-08-29T01:37:22.305Z,15.55
2022-08-29T01:38:22.300Z,15.52
2022-08-29T01:39:22.280Z,15.55
2022-08-29T01:40:22.356Z,15.44
2022-08-29T01:41:22.251Z,15.46
2022-08-29T01:42:22.243Z,15.53
2022-08-29T01:43:22.223Z,15.58
2022-08-29T01:44:22.207Z,15.46
2022-08-29T01:45:22.222Z,15.43
2022-08-29T01:46:22.186Z,15.56
2022-08-29T01:47:22.165Z,15.53
2022-08-29T01:48:22.162Z,15.52
2022-08-29T01:49:22.134Z,15.38
2022-08-29T01:50:22.127Z,15.44
2022-08-29T01:51:22.109Z,15.40
2022-08-29T01:52:22.098Z,15.33
2022-08-29T01:53:22.089Z,15.23
2022-08-29T01:54:22.091Z,15.31
2022-08-29T01:55:22.054Z,15.22
2022-08-29T01:56:22.048Z,15.28
2022-08-29T01:57:22.032Z,15.33
2022-08-29T01:58:22.025Z,15.27
2022-08-29T01:59:22.001Z,15.28
2022-08-29T02:00:21.994Z,15.35
2022-08-29T02:01:22.053Z,15.28
2022-08-29T02:02:22.031Z,15.27
2022-08-29T02:03:21.949Z,15.22
2022-08-29T02:04:21.941Z,15.25
2022-08-29T02:05:21.923Z,15.20
2022-08-29T02:06:21.913Z,15.18
2022-08-29T02:07:21.900Z,15.13
2022-08-29T02:08:21.887Z,15.23
2022-08-29T02:09:21.870Z,15.13
2022-08-29T02:10:21.854Z,15.19
2022-08-29T02:11:21.848Z,15.19
2022-08-29T02:12:21.835Z,15.23
2022-08-29T02:13:21.820Z,15.19
2022-08-29T02:14:21.801Z,15.19
2022-08-29T02:15:21.792Z,15.11
2022-08-29T02:16:21.824Z,15.12
2022-08-29T02:17:21.768Z,15.13
2022-08-29T02:18:21.741Z,15.12
2022-08-29T02:19:21.733Z,15.05
2022-08-29T02:20:21.714Z,15.09
2022-08-29T02:21:21.703Z,15.07
2022-08-29T02:22:21.691Z,15.11
2022-08-29T02:23:30.646Z,15.13
2022-08-29T02:24:25.849Z,15.11
2022-08-29T02:25:21.654Z,15.09
2022-08-29T02:26:21.636Z,15.09
2022-08-29T02:27:21.628Z,15.01
2022-08-29T02:28:21.609Z,15.16
2022-08-29T02:29:21.607Z,15.11
2022-08-29T02:30:21.737Z,15.05
2022-08-29T02:31:21.670Z,15.03
2022-08-29T02:32:21.555Z,15.04
2022-08-29T02:33:21.550Z,15.00
2022-08-29T02:34:21.527Z,15.01
2022-08-29T02:35:21.514Z,14.97
2022-08-29T02:36:21.499Z,14.94
2022-08-29T02:37:21.490Z,15.00
2022-08-29T02:38:21.475Z,14.94
2022-08-29T02:39:21.465Z,15.00
2022-08-29T02:40:24.739Z,14.95
2022-08-29T02:41:22.459Z,14.87
2022-08-29T02:42:21.421Z,14.91
2022-08-29T02:43:21.405Z,15.00
2022-08-29T02:44:21.390Z,14.95
2022-08-29T02:45:21.381Z,14.86
2022-08-29T02:46:21.429Z,14.95
2022-08-29T02:47:21.355Z,14.93
2022-08-29T02:48:21.343Z,14.91
2022-08-29T02:49:21.326Z,15.00
2022-08-29T02:50:21.312Z,14.86
2022-08-29T02:51:21.306Z,14.91
2022-08-29T02:52:21.289Z,14.82
2022-08-29T02:53:21.276Z,14.80
2022-08-29T02:54:21.260Z,14.86
2022-08-29T02:55:21.255Z,14.85
2022-08-29T02:56:21.234Z,14.82
2022-08-29T02:57:21.226Z,14.79
2022-08-29T02:58:21.202Z,14.79
2022-08-29T02:59:21.190Z,14.82
2022-08-29T03:00:21.174Z,14.72
2022-08-29T03:01:21.192Z,14.75
2022-08-29T03:02:21.177Z,14.66
2022-08-29T03:03:21.138Z,14.75
2022-08-29T03:04:21.123Z,14.72
2022-08-29T03:05:21.107Z,14.67
2022-08-29T03:06:21.102Z,14.61
2022-08-29T03:07:21.090Z,14.63
2022-08-29T03:08:21.069Z,14.61
2022-08-29T03:09:21.060Z,14.61
2022-08-29T03:10:21.043Z,14.54
2022-08-29T03:11:21.035Z,14.60
2022-08-29T03:12:21.010Z,14.67
2022-08-29T03:13:21.004Z,14.61
2022-08-29T03:14:20.986Z,14.59
2022-08-29T03:15:20.978Z,14.54
2022-08-29T03:16:21.013Z,14.53
2022-08-29T03:17:20.953Z,14.53
2022-08-29T03:18:20.936Z,14.49
2022-08-29T03:19:20.931Z,14.49
2022-08-29T03:20:20.911Z,14.53
2022-08-29T03:21:20.897Z,14.52
2022-08-29T03:22:20.881Z,14.48
2022-08-29T03:23:20.864Z,14.54
2022-08-29T03:24:26.470Z,14.53
2022-08-29T03:25:21.859Z,14.49
2022-08-29T03:26:20.835Z,14.60
2022-08-29T03:27:20.811Z,14.53
2022-08-29T03:28:20.795Z,14.59
2022-08-29T03:29:20.786Z,14.56
2022-08-29T03:30:20.772Z,14.56
2022-08-29T03:31:20.791Z,14.60
2022-08-29T03:32:20.743Z,14.48
2022-08-29T03:33:20.731Z,14.42
2022-08-29T03:34:20.724Z,14.48
2022-08-29T03:35:20.707Z,14.39
2022-08-29T03:36:20.688Z,14.41
2022-08-29T03:37:20.679Z,14.35
2022-08-29T03:38:20.656Z,14.46
2022-08-29T03:39:20.645Z,14.39
2022-08-29T03:40:20.719Z,14.54
2022-08-29T03:41:20.620Z,14.53
2022-08-29T03:42:20.609Z,14.36
2022-08-29T03:43:20.595Z,14.39
2022-08-29T03:44:20.581Z,14.42
2022-08-29T03:45:20.568Z,14.44
2022-08-29T03:46:20.632Z,14.46
2022-08-29T03:47:20.537Z,14.46
2022-08-29T03:48:20.524Z,14.46
2022-08-29T03:49:20.729Z,14.41
2022-08-29T03:50:20.496Z,14.35
2022-08-29T03:51:20.482Z,14.41
2022-08-29T03:52:20.466Z,14.42
2022-08-29T03:53:20.465Z,14.44
2022-08-29T03:54:20.443Z,14.38
2022-08-29T03:55:20.431Z,14.49
2022-08-29T03:56:20.413Z,14.45
2022-08-29T03:57:20.406Z,14.45
2022-08-29T03:58:20.392Z,14.42
2022-08-29T03:59:20.380Z,14.34
2022-08-29T04:00:20.362Z,14.31
2022-08-29T04:01:20.423Z,14.45
2022-08-29T04:02:20.329Z,14.42
2022-08-29T04:03:20.387Z,14.48
2022-08-29T04:04:20.299Z,14.39
2022-08-29T04:05:20.491Z,14.39
2022-08-29T04:06:20.274Z,14.42
2022-08-29T04:07:20.287Z,14.42
2022-08-29T04:08:20.248Z,14.39
2022-08-29T04:09:20.233Z,14.41
2022-08-29T04:10:20.226Z,14.49
2022-08-29T04:11:20.216Z,14.44
2022-08-29T04:12:20.193Z,14.49
2022-08-29T04:13:20.181Z,14.52
2022-08-29T04:14:20.167Z,14.45
2022-08-29T04:15:20.157Z,14.52
2022-08-29T04:16:20.233Z,14.53
2022-08-29T04:17:20.128Z,14.52
2022-08-29T04:18:21.705Z,14.52
2022-08-29T04:19:20.104Z,14.41
2022-08-29T04:20:24.587Z,14.48
2022-08-29T04:21:20.078Z,14.54
2022-08-29T04:22:20.055Z,14.54
2022-08-29T04:23:20.046Z,14.54
2022-08-29T04:24:20.030Z,14.53
2022-08-29T04:25:20.019Z,14.54
2022-08-29T04:26:36.357Z,14.53
2022-08-29T04:27:21.004Z,14.52
2022-08-29T04:28:19.968Z,14.61
2022-08-29T04:29:19.958Z,14.53
2022-08-29T04:30:19.945Z,14.57
2022-08-29T04:31:19.958Z,14.63
2022-08-29T04:32:19.915Z,14.63
2022-08-29T04:33:22.435Z,14.57
2022-08-29T04:34:19.895Z,14.61
2022-08-29T04:35:19.886Z,14.57
2022-08-29T04:36:19.865Z,14.60
2022-08-29T04:37:19.856Z,14.61
2022-08-29T04:38:19.841Z,14.60
2022-08-29T04:39:19.825Z,14.53
2022-08-29T04:40:19.897Z,14.56
2022-08-29T04:41:19.799Z,14.56
2022-08-29T04:42:20.480Z,14.54
2022-08-29T04:43:19.771Z,14.61
2022-08-29T04:44:19.748Z,14.61
2022-08-29T04:45:19.744Z,14.59
2022-08-29T04:46:23.439Z,14.59
2022-08-29T04:47:19.720Z,14.57
2022-08-29T04:48:19.696Z,14.61
2022-08-29T04:49:19.690Z,14.61
2022-08-29T04:50:19.673Z,14.75
2022-08-29T04:51:19.662Z,14.64
2022-08-29T04:52:19.645Z,14.72
2022-08-29T04:53:19.638Z,14.74
2022-08-29T04:54:19.617Z,14.59
2022-08-29T04:55:22.599Z,14.66
2022-08-29T04:56:19.595Z,14.72
2022-08-29T04:57:19.582Z,14.74
2022-08-29T04:58:19.557Z,14.69
2022-08-29T04:59:19.549Z,14.69
2022-08-29T05:00:19.534Z,14.67
2022-08-29T05:01:19.572Z,14.71
2022-08-29T05:02:19.534Z,14.82
2022-08-29T05:03:19.509Z,14.72
2022-08-29T05:04:19.476Z,14.72
2022-08-29T05:05:19.468Z,14.72
2022-08-29T05:06:22.446Z,14.82
2022-08-29T05:07:19.440Z,14.85
2022-08-29T05:08:19.501Z,14.83
2022-08-29T05:09:19.418Z,14.87
2022-08-29T05:10:19.397Z,14.85
2022-08-29T05:11:22.528Z,14.87
2022-08-29T05:12:19.369Z,14.79
2022-08-29T05:13:19.361Z,14.79
2022-08-29T05:14:19.348Z,14.87
2022-08-29T05:15:19.331Z,14.90
2022-08-29T05:16:19.390Z,14.75
2022-08-29T05:17:19.306Z,14.72
2022-08-29T05:18:19.292Z,14.83
2022-08-29T05:19:19.280Z,14.93
2022-08-29T05:20:19.263Z,14.85
2022-08-29T05:21:19.258Z,14.90
2022-08-29T05:22:19.232Z,14.87
2022-08-29T05:23:19.221Z,14.86
2022-08-29T05:24:19.202Z,14.86
2022-08-29T05:25:19.201Z,14.87
2022-08-29T05:26:19.179Z,14.87
2022-08-29T05:27:19.167Z,15.00
2022-08-29T05:28:19.151Z,14.98
2022-08-29T05:29:19.142Z,14.91
2022-08-29T05:30:34.037Z,15.05
2022-08-29T05:31:20.190Z,15.05
2022-08-29T05:32:19.101Z,15.01
2022-08-29T05:33:19.094Z,15.09
2022-08-29T05:34:33.892Z,15.05
2022-08-29T05:35:20.075Z,15.13
2022-08-29T05:36:19.048Z,15.07
2022-08-29T05:37:19.029Z,15.11
2022-08-29T05:38:19.021Z,15.09
2022-08-29T05:39:19.008Z,15.23
2022-08-29T05:40:19.075Z,15.28
2022-08-29T05:41:18.979Z,15.15
2022-08-29T05:42:18.961Z,15.03
2022-08-29T05:43:18.949Z,15.07
2022-08-29T05:44:18.933Z,15.25
2022-08-29T05:45:18.920Z,15.13
2022-08-29T05:46:20.231Z,15.09
2022-08-29T05:47:18.903Z,15.16
2022-08-29T05:48:18.884Z,15.16
2022-08-29T05:49:18.876Z,15.20
2022-08-29T05:50:18.852Z,15.37
2022-08-29T05:51:18.837Z,15.31
2022-08-29T05:52:18.825Z,15.41
2022-08-29T05:53:18.808Z,15.38
2022-08-29T05:54:18.806Z,15.55
2022-08-29T05:55:18.785Z,15.48
2022-08-29T05:56:18.778Z,15.49
2022-08-29T05:57:19.473Z,15.51
2022-08-29T05:58:18.750Z,15.66
2022-08-29T05:59:18.731Z,15.67
2022-08-29T06:00:18.726Z,15.85
2022-08-29T06:01:18.703Z,15.78
2022-08-29T06:02:18.885Z,15.91
2022-08-29T06:03:18.810Z,16.04
2022-08-29T06:04:18.666Z,16.08
2022-08-29T06:05:18.650Z,16.08
2022-08-29T06:06:18.640Z,16.11
2022-08-29T06:07:18.620Z,16.17
2022-08-29T06:08:18.609Z,16.27
2022-08-29T06:09:18.597Z,16.29
2022-08-29T06:10:18.587Z,16.30
2022-08-29T06:11:18.569Z,16.45
2022-08-29T06:12:18.558Z,16.50
2022-08-29T06:13:18.542Z,16.63
2022-08-29T06:14:18.537Z,16.59
2022-08-29T06:15:18.514Z,16.72
2022-08-29T06:16:18.572Z,16.80
2022-08-29T06:17:18.494Z,16.87
2022-08-29T06:18:18.482Z,16.96
2022-08-29T06:19:19.489Z,17.00
2022-08-29T06:20:18.448Z,17.05
2022-08-29T06:21:18.434Z,17.10
2022-08-29T06:22:18.426Z,17.17
2022-08-29T06:23:18.407Z,17.22
2022-08-29T06:24:18.400Z,17.46
2022-08-29T06:25:39.932Z,17.58
2022-08-29T06:26:19.388Z,17.84
2022-08-29T06:27:18.362Z,17.73
2022-08-29T06:28:23.873Z,17.95
2022-08-29T06:29:18.320Z,18.04
2022-08-29T06:30:18.314Z,18.07
2022-08-29T06:31:18.398Z,18.16
2022-08-29T06:32:18.282Z,18.46
2022-08-29T06:33:18.272Z,18.86
2022-08-29T06:34:18.263Z,19.28
2022-08-29T06:35:18.244Z,19.43
2022-08-29T06:36:18.235Z,19.87
2022-08-29T06:37:18.217Z,19.98
2022-08-29T06:38:18.662Z,20.38
2022-08-29T06:39:18.195Z,20.72
2022-08-29T06:40:18.313Z,20.94
2022-08-29T06:41:18.163Z,21.13
2022-08-29T06:42:18.149Z,21.38
2022-08-29T06:43:18.140Z,21.53
2022-08-29T06:44:18.126Z,21.59
2022-08-29T06:45:18.106Z,21.74
2022-08-29T06:46:18.180Z,21.53
2022-08-29T06:47:18.078Z,21.40
2022-08-29T06:48:18.079Z,21.43
2022-08-29T06:49:18.054Z,21.49
2022-08-29T06:50:18.049Z,21.74
2022-08-29T06:51:18.031Z,21.83
2022-08-29T06:52:18.026Z,21.90
2022-08-29T06:53:32.581Z,22.05
2022-08-29T06:54:19.015Z,21.98
2022-08-29T06:55:17.976Z,22.24
2022-08-29T06:56:18.994Z,22.36
2022-08-29T06:57:17.951Z,22.59
2022-08-29T06:58:17.941Z,22.63
2022-08-29T06:59:17.925Z,22.85
2022-08-29T07:00:22.171Z,23.12
2022-08-29T07:01:17.956Z,23.16
2022-08-29T07:02:17.918Z,23.32
2022-08-29T07:03:17.870Z,23.50
2022-08-29T07:04:20.570Z,23.69
2022-08-29T07:05:17.843Z,23.86
2022-08-29T07:06:17.838Z,24.04
2022-08-29T07:07:17.818Z,23.82
2022-08-29T07:08:17.806Z,23.63
2022-08-29T07:09:17.791Z,23.52
2022-08-29T07:10:22.261Z,23.59
2022-08-29T07:11:17.761Z,23.68
2022-08-29T07:12:17.753Z,23.94
2022-08-29T07:13:17.734Z,24.16
2022-08-29T07:14:17.727Z,24.41
2022-08-29T07:15:17.715Z,24.63
2022-08-29T07:16:17.737Z,24.84
2022-08-29T07:17:19.033Z,24.92
2022-08-29T07:18:18.699Z,25.08
2022-08-29T07:19:17.660Z,25.12
2022-08-29T07:20:17.652Z,24.86
2022-08-29T07:21:20.596Z,24.67
2022-08-29T07:22:17.619Z,24.71
2022-08-29T07:23:17.687Z,24.89
2022-08-29T07:24:18.969Z,25.07
2022-08-29T07:25:17.577Z,25.19
2022-08-29T07:26:17.574Z,25.39
2022-08-29T07:27:17.556Z,25.48
2022-08-29T07:28:17.622Z,25.63
2022-08-29T07:29:17.536Z,25.64
2022-08-29T07:30:17.526Z,25.57
2022-08-29T07:31:17.598Z,25.19
2022-08-29T07:32:17.492Z,25.39
2022-08-29T07:33:17.473Z,25.78
2022-08-29T07:34:20.705Z,26.11
2022-08-29T07:35:18.621Z,26.28
2022-08-29T07:36:18.464Z,26.32
2022-08-29T07:37:17.421Z,26.64
2022-08-29T07:38:17.415Z,26.84
2022-08-29T07:39:17.400Z,26.64
2022-08-29T07:40:17.466Z,26.66
2022-08-29T07:41:17.372Z,26.69
2022-08-29T07:42:17.362Z,26.79
2022-08-29T07:43:20.130Z,26.75
2022-08-29T07:44:17.338Z,26.56
2022-08-29T07:45:17.322Z,26.73
2022-08-29T07:46:17.423Z,26.60
2022-08-29T07:47:17.293Z,26.59
2022-08-29T07:48:22.379Z,27.05
2022-08-29T07:49:17.266Z,27.31
2022-08-29T07:50:17.257Z,27.45
2022-08-29T07:51:17.243Z,27.65
2022-08-29T07:52:17.232Z,27.83
2022-08-29T07:53:17.436Z,28.14
2022-08-29T07:54:17.236Z,28.13
2022-08-29T07:55:17.195Z,28.28
2022-08-29T07:56:17.188Z,28.45
2022-08-29T07:57:17.175Z,28.58
2022-08-29T07:58:17.155Z,28.92
2022-08-29T07:59:17.137Z,29.08
2022-08-29T08:00:17.134Z,28.74
2022-08-29T08:01:20.991Z,28.50
2022-08-29T08:02:17.137Z,28.40
2022-08-29T08:03:17.092Z,28.60
2022-08-29T08:04:17.089Z,28.92
2022-08-29T08:05:17.069Z,28.88
2022-08-29T08:06:17.060Z,29.29
2022-08-29T08:07:17.046Z,29.45
2022-08-29T08:08:17.322Z,29.54
2022-08-29T08:09:17.020Z,29.55
2022-08-29T08:10:17.004Z,29.62
2022-08-29T08:11:17.004Z,29.76
2022-08-29T08:12:16.983Z,29.92
2022-08-29T08:13:17.226Z,30.11
2022-08-29T08:14:16.952Z,30.36
2022-08-29T08:15:16.936Z,30.57
2022-08-29T08:16:16.976Z,30.64
2022-08-29T08:17:16.914Z,30.68
2022-08-29T08:18:17.020Z,30.66
2022-08-29T08:19:16.898Z,30.79
2022-08-29T08:20:16.884Z,30.70
2022-08-29T08:21:16.866Z,29.99
2022-08-29T08:22:16.855Z,29.94
2022-08-29T08:23:17.148Z,30.03
2022-08-29T08:24:19.528Z,29.88
2022-08-29T08:25:16.819Z,29.62
2022-08-29T08:26:17.015Z,29.51
2022-08-29T08:27:16.793Z,29.66
2022-08-29T08:28:16.980Z,29.85
2022-08-29T08:29:16.771Z,29.66
2022-08-29T08:30:16.759Z,29.88
2022-08-29T08:31:16.801Z,30.28
2022-08-29T08:32:16.940Z,30.61
2022-08-29T08:33:16.893Z,30.96
2022-08-29T08:34:16.708Z,31.30
2022-08-29T08:35:16.689Z,31.40
2022-08-29T08:36:16.743Z,31.65
2022-08-29T08:37:24.232Z,31.78
2022-08-29T08:38:17.679Z,31.72
2022-08-29T08:39:16.642Z,32.06
2022-08-29T08:40:16.710Z,32.32
2022-08-29T08:41:16.618Z,32.46
2022-08-29T08:42:16.612Z,32.80
2022-08-29T08:43:24.272Z,33.09
2022-08-29T08:44:17.611Z,32.98
2022-08-29T08:45:16.576Z,33.03
2022-08-29T08:46:16.688Z,32.91
2022-08-29T08:47:16.551Z,32.81
2022-08-29T08:48:16.545Z,33.03
2022-08-29T08:49:16.532Z,33.02
2022-08-29T08:50:16.520Z,32.59
2022-08-29T08:51:16.495Z,32.50
2022-08-29T08:52:16.490Z,32.84
2022-08-29T08:53:16.789Z,33.05
2022-08-29T08:54:16.467Z,33.28
2022-08-29T08:55:16.475Z,33.31
2022-08-29T08:56:16.440Z,33.34
2022-08-29T08:57:16.425Z,33.22
2022-08-29T08:58:16.713Z,32.51
2022-08-29T08:59:16.418Z,32.43
2022-08-29T09:00:16.399Z,32.76
2022-08-29T09:01:16.472Z,32.93
2022-08-29T09:02:16.390Z,33.03
2022-08-29T09:03:16.678Z,33.02
2022-08-29T09:04:16.347Z,33.31
2022-08-29T09:05:16.333Z,33.82
2022-08-29T09:06:16.319Z,34.18
2022-08-29T09:07:16.305Z,34.16
2022-08-29T09:08:16.298Z,33.96
2022-08-29T09:09:16.283Z,33.22
2022-08-29T09:10:16.281Z,33.22
2022-08-29T09:11:16.263Z,33.33
2022-08-29T09:12:16.271Z,33.24
2022-08-29T09:13:16.550Z,33.41
2022-08-29T09:14:16.234Z,33.21
2022-08-29T09:15:16.221Z,33.31
2022-08-29T09:16:16.248Z,33.59
2022-08-29T09:17:16.193Z,33.74
2022-08-29T09:18:20.352Z,33.94
2022-08-29T09:19:17.559Z,34.28
2022-08-29T09:20:16.169Z,34.42
2022-08-29T09:21:39.476Z,34.46
2022-08-29T09:22:17.163Z,34.60
2022-08-29T09:23:16.378Z,34.91
2022-08-29T09:24:16.112Z,35.22
2022-08-29T09:25:16.097Z,35.29
2022-08-29T09:26:16.318Z,35.29
2022-08-29T09:27:16.076Z,35.56
2022-08-29T09:28:16.071Z,35.59
2022-08-29T09:29:16.056Z,35.20
2022-08-29T09:30:16.050Z,34.72
2022-08-29T09:31:16.109Z,33.59
2022-08-29T09:32:20.312Z,33.31
2022-08-29T09:33:17.687Z,33.29
2022-08-29T09:34:16.009Z,33.11
2022-08-29T09:35:15.986Z,33.18
2022-08-29T09:36:15.978Z,33.57
2022-08-29T09:37:15.966Z,33.84
2022-08-29T09:38:15.955Z,33.87
2022-08-29T09:39:15.940Z,34.21
2022-08-29T09:40:16.745Z,34.50
2022-08-29T09:41:15.917Z,34.58
2022-08-29T09:42:15.931Z,34.72
2022-08-29T09:43:16.104Z,34.18
2022-08-29T09:44:15.883Z,34.11
2022-08-29T09:45:15.871Z,34.16
2022-08-29T09:46:15.942Z,34.50
2022-08-29T09:47:15.848Z,35.02
2022-08-29T09:48:15.847Z,35.27
2022-08-29T09:49:15.838Z,35.43
2022-08-29T09:50:15.818Z,35.64
2022-08-29T09:51:15.810Z,35.61
2022-08-29T09:52:15.802Z,35.36
2022-08-29T09:53:24.810Z,35.32
2022-08-29T09:54:16.811Z,35.29
2022-08-29T09:55:15.774Z,35.37
2022-08-29T09:56:15.755Z,34.80
2022-08-29T09:57:15.734Z,34.67
2022-08-29T09:58:15.727Z,34.99
2022-08-29T09:59:15.717Z,35.15
2022-08-29T10:00:15.707Z,35.55
2022-08-29T10:01:15.736Z,35.95
2022-08-29T10:02:15.688Z,36.23
2022-08-29T10:03:15.830Z,36.33
2022-08-29T10:04:15.655Z,36.02
2022-08-29T10:05:15.641Z,34.81
2022-08-29T10:06:15.630Z,34.28
2022-08-29T10:07:15.625Z,34.12
2022-08-29T10:08:15.610Z,34.37
2022-08-29T10:09:15.603Z,34.84
2022-08-29T10:10:15.591Z,35.37
2022-08-29T10:11:15.587Z,35.46
2022-08-29T10:12:15.586Z,35.32
2022-08-29T10:13:15.779Z,34.38
2022-08-29T10:14:15.544Z,34.34
2022-08-29T10:15:28.211Z,34.52
2022-08-29T10:16:16.649Z,34.78
2022-08-29T10:17:15.518Z,34.36
2022-08-29T10:18:15.496Z,33.96
2022-08-29T10:19:15.487Z,33.79
2022-08-29T10:20:15.557Z,33.43
2022-08-29T10:21:15.469Z,33.47
2022-08-29T10:22:15.506Z,33.63
2022-08-29T10:23:15.658Z,33.62
2022-08-29T10:24:18.798Z,33.62
2022-08-29T10:25:15.424Z,33.45
2022-08-29T10:26:15.409Z,33.63
2022-08-29T10:27:15.404Z,33.81
2022-08-29T10:28:15.386Z,34.01
2022-08-29T10:29:15.379Z,34.15
2022-08-29T10:30:15.470Z,34.40
2022-08-29T10:31:15.393Z,34.55
2022-08-29T10:32:15.339Z,34.73
2022-08-29T10:33:15.582Z,35.06
2022-08-29T10:34:15.317Z,35.18
2022-08-29T10:35:15.603Z,35.42
2022-08-29T10:36:15.290Z,35.61
2022-08-29T10:37:15.281Z,35.13
2022-08-29T10:38:15.269Z,34.76
2022-08-29T10:39:15.263Z,34.90
2022-08-29T10:40:17.608Z,34.80
2022-08-29T10:41:15.237Z,34.63
2022-08-29T10:42:15.227Z,34.42
2022-08-29T10:43:15.348Z,33.65
2022-08-29T10:45:15.185Z,33.49
2022-08-29T10:46:15.240Z,33.29
2022-08-29T10:47:15.169Z,33.22
2022-08-29T10:48:15.311Z,33.37
2022-08-29T10:49:15.139Z,33.26
2022-08-29T10:50:27.672Z,33.43
2022-08-29T10:51:17.274Z,33.26
2022-08-29T10:52:15.104Z,33.43
2022-08-29T10:53:15.098Z,33.47
2022-08-29T10:54:15.083Z,33.56
2022-08-29T10:55:15.077Z,33.44
2022-08-29T10:56:15.081Z,33.38
2022-08-29T10:57:15.051Z,33.03
2022-08-29T10:58:15.082Z,32.51
2022-08-29T10:59:15.032Z,31.79
2022-08-29T11:00:15.066Z,31.65
2022-08-29T11:01:15.160Z,31.18
2022-08-29T11:02:14.987Z,31.22
2022-08-29T11:03:15.243Z,31.62
2022-08-29T11:04:15.050Z,32.10
2022-08-29T11:05:14.961Z,32.50
2022-08-29T11:06:14.942Z,32.83
2022-08-29T11:07:14.933Z,32.99
2022-08-29T11:08:16.398Z,33.24
2022-08-29T11:09:14.911Z,33.65
2022-08-29T11:10:14.985Z,33.87
2022-08-29T11:11:14.889Z,34.09
2022-08-29T11:12:17.897Z,34.28
2022-08-29T11:13:14.874Z,34.67
2022-08-29T11:14:14.846Z,34.56
2022-08-29T11:15:14.840Z,34.86
2022-08-29T11:16:14.899Z,34.86
2022-08-29T11:17:14.814Z,34.94
2022-08-29T11:18:15.560Z,35.20
2022-08-29T11:19:20.119Z,35.28
2022-08-29T11:20:15.798Z,35.61
2022-08-29T11:21:14.767Z,34.28
2022-08-29T11:22:14.756Z,33.21
2022-08-29T11:23:14.747Z,33.17
2022-08-29T11:24:14.735Z,33.56
2022-08-29T11:25:14.728Z,33.92
2022-08-29T11:26:14.713Z,34.34
2022-08-29T11:27:14.704Z,34.12
2022-08-29T11:28:14.877Z,33.78
2022-08-29T11:29:14.683Z,33.12
2022-08-29T11:30:14.661Z,32.91
2022-08-29T11:31:14.689Z,33.03
2022-08-29T11:32:14.638Z,33.00
2022-08-29T11:33:14.839Z,33.00
2022-08-29T11:34:14.617Z,33.26
2022-08-29T11:35:14.613Z,33.84
2022-08-29T11:36:14.591Z,34.40
2022-08-29T11:37:14.582Z,34.86
2022-08-29T11:38:14.572Z,35.34
2022-08-29T11:39:14.565Z,35.44
2022-08-29T11:40:15.082Z,35.58
2022-08-29T11:41:30.360Z,35.76
2022-08-29T11:42:49.489Z,35.66
2022-08-29T11:43:15.769Z,35.65
2022-08-29T11:44:14.499Z,35.89
2022-08-29T11:45:14.494Z,36.08
2022-08-29T11:46:14.480Z,36.56
2022-08-29T11:47:14.544Z,36.82
2022-08-29T11:48:14.459Z,36.27
2022-08-29T11:49:14.452Z,35.21
2022-08-29T11:50:14.435Z,34.42
2022-08-29T11:51:14.427Z,34.36
2022-08-29T11:52:16.679Z,34.55
2022-08-29T11:53:16.711Z,35.18
2022-08-29T11:54:14.386Z,35.25
2022-08-29T11:55:16.038Z,35.52
2022-08-29T11:56:14.386Z,35.39
2022-08-29T11:57:14.355Z,34.69
2022-08-29T11:58:14.342Z,34.38
2022-08-29T11:59:14.333Z,34.98
2022-08-29T12:00:14.744Z,35.40
2022-08-29T12:01:14.428Z,35.80
2022-08-29T12:02:14.319Z,36.19
2022-08-29T12:03:25.212Z,35.78
2022-08-29T12:04:15.359Z,35.83
2022-08-29T12:05:14.269Z,35.68
2022-08-29T12:06:14.258Z,35.55
2022-08-29T12:07:14.248Z,35.22
2022-08-29T12:08:35.478Z,35.20
2022-08-29T12:09:15.248Z,35.62
2022-08-29T12:10:14.215Z,36.16
2022-08-29T12:11:14.200Z,36.46
2022-08-29T12:12:14.189Z,37.01
2022-08-29T12:13:14.373Z,37.35
2022-08-29T12:14:14.165Z,37.23
2022-08-29T12:15:14.160Z,37.23
2022-08-29T12:16:14.200Z,37.28
2022-08-29T12:17:14.136Z,37.09
2022-08-29T12:18:14.290Z,36.97
2022-08-29T12:19:14.109Z,36.72
2022-08-29T12:20:14.096Z,35.93
2022-08-29T12:21:14.097Z,35.71
2022-08-29T12:22:21.944Z,35.95
2022-08-29T12:23:15.426Z,35.81
2022-08-29T12:24:14.050Z,35.50
2022-08-29T12:25:14.044Z,35.91
2022-08-29T12:26:22.382Z,36.28
2022-08-29T12:27:20.323Z,35.74
2022-08-29T12:28:14.010Z,35.39
2022-08-29T12:29:14.001Z,35.02
2022-08-29T12:30:13.985Z,35.22
2022-08-29T12:31:14.099Z,35.55
2022-08-29T12:32:22.548Z,35.76
2022-08-29T12:33:15.088Z,35.47
2022-08-29T12:34:13.937Z,35.15
2022-08-29T12:35:13.930Z,35.27
2022-08-29T12:36:13.913Z,35.24
2022-08-29T12:37:13.911Z,34.56
2022-08-29T12:38:13.893Z,34.14
2022-08-29T12:39:13.885Z,34.36
2022-08-29T12:40:13.967Z,34.58
2022-08-29T12:41:13.861Z,34.56
2022-08-29T12:42:13.851Z,34.64
2022-08-29T12:43:13.875Z,34.69
2022-08-29T12:44:13.831Z,34.56
2022-08-29T12:45:13.821Z,34.76
2022-08-29T12:46:13.894Z,35.17
2022-08-29T12:47:13.885Z,35.39
2022-08-29T12:48:13.872Z,35.71
2022-08-29T12:49:13.775Z,35.80
2022-08-29T12:50:13.761Z,35.27
2022-08-29T12:51:13.757Z,35.15
2022-08-29T12:52:13.790Z,35.00
2022-08-29T12:53:13.731Z,35.09